Currently 50°F in French Valley, California, USA
50°F
50°F / 49°F
calm
0.00"
Monday, February 20, 2017 2:53 AM PST

French Valley, California Weather Summary
Last 36 Hours

Temperature Winds Hourly Humidity Dewpoint
Time Report Norm Report Norm Max Gusts Precip. Rpt. Norm Rpt. Norm Pressure
1Mon 02:53 AM  49.6°F  48°F  calm  1 mph  none  0.00"  97%  82%  49°F  43°F  30.29"
Mon 02:00 AM  49.3°F  49°F  calm  1 mph  4 mph  0.00"  96%  82%  48°F  43°F  30.29"
3Mon 01:04 AM  48.7°F  49°F  3 mph SE  2 mph  4 mph  ----  96%  81%  48°F  43°F  30.27"
Mon 01:00 AM  48.9°F  49°F  calm  2 mph  5 mph  0.00"  96%  81%  48°F  43°F  30.28"
2Mon 12:00 AM  49.6°F  50°F  calm  2 mph  none  0.02"  96%  81%  48°F  44°F  30.28"
Sun 11:00 PM  50.2°F  50°F  calm  2 mph  7 mph  0.00"  95%  80%  49°F  44°F  30.27"
Sun 10:00 PM  50.4°F  52°F  3 mph S  2 mph  7 mph  0.00"  95%  79%  49°F  45°F  30.26"
Sun 09:00 PM  50.5°F  53°F  5 mph S  2 mph  8 mph  0.00"  94%  77%  49°F  46°F  30.23"
Sun 08:00 PM  50.6°F  55°F  5 mph SW  3 mph  9 mph  0.00"  92%  73%  48°F  46°F  30.21"
Sun 07:00 PM  50.6°F  57°F  4 mph SW  4 mph  11 mph  0.00"  92%  68%  48°F  46°F  30.17"
Sun 06:00 PM  51.9°F  60°F  5 mph SW  4 mph  13 mph  0.00"  90%  61%  49°F  46°F  30.14"
Sun 05:00 PM  52.6°F  64°F  6 mph SW  5 mph  16 mph  0.00"  87%  52%  49°F  45°F  30.12"
Sun 04:00 PM  53.3°F  66°F  9 mph S  6 mph  15 mph  0.00"  87%  48%  49°F  45°F  30.10"
Sun 03:00 PM  54.6°F  67°F  6 mph S  6 mph  16 mph  0.00"  85%  44%  50°F  44°F  30.09"
Sun 02:00 PM  53.4°F  67°F  7 mph SW  5 mph  15 mph  0.00"  88%  43%  50°F  43°F  30.09"
Sun 01:00 PM  55.2°F  67°F  9 mph S  6 mph  15 mph  0.01"  87%  44%  51°F  43°F  30.07"
Sun 12:00 PM  53.0°F  65°F  6 mph S  4 mph  17 mph  0.01"  96%  47%  52°F  44°F  30.07"
Sun 11:00 AM  52.1°F  63°F  8 mph S  4 mph  12 mph  0.00"  97%  53%  51°F  44°F  30.09"
Sun 10:00 AM  52.9°F  59°F  6 mph SW  3 mph  15 mph  0.00"  91%  62%  50°F  45°F  30.06"
Sun 09:00 AM  52.3°F  54°F  7 mph S  2 mph  14 mph  0.00"  92%  71%  50°F  45°F  30.03"
Sun 08:00 AM  51.2°F  50°F  3 mph S  1 mph  9 mph  0.00"  97%  80%  50°F  44°F  30.00"
Sun 07:00 AM  50.3°F  47°F  2 mph SE  1 mph  8 mph  0.00"  98%  83%  50°F  42°F  29.96"
Sun 06:00 AM  50.7°F  46°F  4 mph S  1 mph  10 mph  0.00"  98%  83%  50°F  41°F  29.94"
Sun 05:00 AM  50.6°F  47°F  4 mph S  2 mph  8 mph  0.00"  98%  83%  50°F  42°F  29.92"
Sun 04:00 AM  50.8°F  47°F  4 mph S  1 mph  9 mph  0.00"  99%  83%  50°F  42°F  29.91"
Sun 03:00 AM  51.1°F  48°F  6 mph S  2 mph  9 mph  0.00"  99%  82%  51°F  43°F  29.89"
Sun 02:00 AM  51.3°F  49°F  5 mph S  1 mph  10 mph  0.00"  98%  81%  51°F  43°F  29.86"
Sun 01:00 AM  51.3°F  50°F  6 mph S  2 mph  8 mph  0.00"  98%  80%  51°F  43°F  29.85"
Sun 12:00 AM  51.9°F  50°F  4 mph S  2 mph  9 mph  0.19"  98%  80%  51°F  44°F  29.84"
Sat 11:00 PM  51.9°F  51°F  3 mph S  1 mph  7 mph  0.00"  98%  79%  51°F  44°F  29.84"
Sat 10:00 PM  51.5°F  52°F  1 mph S  2 mph  13 mph  0.00"  98%  77%  51°F  45°F  29.81"
Sat 09:00 PM  51.7°F  53°F  4 mph S  2 mph  8 mph  0.00"  98%  76%  51°F  46°F  29.78"
Sat 08:00 PM  51.9°F  55°F  2 mph S  3 mph  8 mph  0.00"  98%  73%  51°F  46°F  29.76"
Sat 07:00 PM  52.0°F  57°F  1 mph S  4 mph  9 mph  0.00"  97%  67%  51°F  46°F  29.72"
Sat 06:00 PM  52.8°F  60°F  4 mph S  4 mph  8 mph  0.00"  97%  60%  52°F  46°F  29.70"
Sat 05:00 PM  53.4°F  64°F  4 mph S  6 mph  9 mph  0.04"  96%  52%  52°F  45°F  29.68"
Sat 04:00 PM  54.8°F  67°F  5 mph S  6 mph  11 mph  0.00"  88%  47%  51°F  45°F  29.67"
Sat 03:00 PM  55.0°F  68°F  8 mph SW  6 mph  13 mph  0.00"  87%  43%  51°F  44°F  29.64"

  1. Current weather data. No green row appears if the current weather data is also the high or low for the current day.
  2. High temperature for the current day.
  3. Low temperature for the current day.

The French Valley, California weather pages are a service of WeatherCurrents. French Valley is located in southwestern Riverside County, California, north of Temecula, east of Murrieta, and south of Winchester. French Valley is bordered by Lake Skinner.
Copyright ©Mon Feb 20 02:54:36 PST 2017  WeatherCurrents. All rights reserved. - Submit questions and comments - Privacy Policy

This page automatically refreshes every 10 minutes.